createdAt,value
2022-10-07T00:01:55.754Z,101753.22
2022-10-07T00:04:25.419Z,101750.28
2022-10-07T00:06:55.034Z,101750.44
2022-10-07T00:09:24.620Z,101750.81
2022-10-07T00:11:55.075Z,101745.34
2022-10-07T00:14:24.683Z,101746.50
2022-10-07T00:16:56.928Z,101740.91
2022-10-07T00:19:26.627Z,101738.56
2022-10-07T00:21:56.250Z,101731.94
2022-10-07T00:24:25.909Z,101732.97
2022-10-07T00:26:55.999Z,101740.09
2022-10-07T00:29:25.668Z,101727.00
2022-10-07T00:31:57.876Z,101728.81
2022-10-07T00:34:27.682Z,101726.19
2022-10-07T00:36:57.260Z,101720.22
2022-10-07T00:39:26.719Z,101724.34
2022-10-07T00:41:56.333Z,101716.41
2022-10-07T00:44:50.097Z,101721.38
2022-10-07T00:47:28.236Z,101718.25
2022-10-07T00:49:59.457Z,101714.13
2022-10-07T00:52:31.316Z,101708.19
2022-10-07T00:55:01.514Z,101705.53
2022-10-07T00:57:32.057Z,101712.84
2022-10-07T01:00:01.701Z,101703.41
2022-10-07T01:02:34.009Z,101705.22
2022-10-07T01:05:04.689Z,101698.91
2022-10-07T01:07:34.252Z,101699.13
2022-10-07T01:10:03.829Z,101697.13
2022-10-07T01:12:39.898Z,101696.47
2022-10-07T01:15:11.843Z,101690.38
2022-10-07T01:17:47.526Z,101687.88
2022-10-07T01:20:25.230Z,101685.88
2022-10-07T01:23:12.077Z,101688.03
2022-10-07T01:25:49.583Z,101676.97
2022-10-07T01:28:23.325Z,101677.13
2022-10-07T01:30:54.830Z,101668.88
2022-10-07T01:33:27.844Z,101675.31
2022-10-07T01:35:58.055Z,101671.69
2022-10-07T01:38:28.984Z,101661.94
2022-10-07T01:41:00.646Z,101664.25
2022-10-07T01:43:32.704Z,101663.56
2022-10-07T01:46:02.498Z,101674.16
2022-10-07T01:48:32.872Z,101670.22
2022-10-07T01:51:02.486Z,101661.13
2022-10-07T01:53:39.188Z,101662.44
2022-10-07T01:56:19.102Z,101660.13
2022-10-07T01:59:04.730Z,101654.00
2022-10-07T02:01:36.153Z,101652.69
2022-10-07T02:04:12.888Z,101633.19
2022-10-07T02:06:45.428Z,101640.94
2022-10-07T02:09:26.083Z,101638.66
2022-10-07T02:11:58.613Z,101632.88
2022-10-07T02:14:33.785Z,101636.34
2022-10-07T02:17:05.828Z,101625.63
2022-10-07T02:19:36.496Z,101636.00
2022-10-07T02:22:05.982Z,101632.06
2022-10-07T02:24:37.610Z,101629.91
2022-10-07T02:27:11.080Z,101628.78
2022-10-07T02:29:43.815Z,101623.63
2022-10-07T02:32:14.399Z,101618.84
2022-10-07T02:34:43.923Z,101618.34
2022-10-07T02:37:15.318Z,101605.94
2022-10-07T02:39:46.703Z,101605.94
2022-10-07T02:42:22.032Z,101603.81
2022-10-07T02:44:55.010Z,101608.75
2022-10-07T02:47:29.008Z,101600.97
2022-10-07T02:50:00.231Z,101599.34
2022-10-07T02:52:31.449Z,101602.31
2022-10-07T02:55:03.495Z,101600.31
2022-10-07T02:57:34.102Z,101592.75
2022-10-07T03:00:10.899Z,101587.28
2022-10-07T03:02:42.419Z,101587.63
2022-10-07T03:05:12.256Z,101591.75
2022-10-07T03:07:47.095Z,101588.78
2022-10-07T03:10:16.808Z,101583.84
2022-10-07T03:12:47.072Z,101586.59
2022-10-07T03:15:19.545Z,101585.63
2022-10-07T03:17:49.046Z,101592.88
2022-10-07T03:20:18.530Z,101582.94
2022-10-07T03:22:48.117Z,101587.75
2022-10-07T03:25:17.792Z,101581.13
2022-10-07T03:27:48.690Z,101578.19
2022-10-07T03:30:24.515Z,101574.53
2022-10-07T03:32:55.195Z,101580.81
2022-10-07T03:35:24.672Z,101577.16
2022-10-07T03:37:54.230Z,101575.34
2022-10-07T03:40:23.988Z,101579.00
2022-10-07T03:42:53.496Z,101579.97
2022-10-07T03:45:26.252Z,101579.47
2022-10-07T03:47:55.807Z,101576.19
2022-10-07T03:50:25.439Z,101572.50
2022-10-07T03:52:55.743Z,101581.44
2022-10-07T03:55:25.228Z,101577.47
2022-10-07T03:57:59.268Z,101575.81
2022-10-07T04:00:31.846Z,101574.78
2022-10-07T04:03:01.397Z,101564.72
2022-10-07T04:05:31.134Z,101566.84
2022-10-07T04:08:00.618Z,101561.72
2022-10-07T04:10:30.098Z,101558.94
2022-10-07T04:12:59.660Z,101558.09
2022-10-07T04:15:31.740Z,101558.78
2022-10-07T04:18:01.214Z,101563.72
2022-10-07T04:20:30.696Z,101559.13
2022-10-07T04:23:00.184Z,101561.75
2022-10-07T04:25:38.680Z,101549.72
2022-10-07T04:28:09.654Z,101547.41
2022-10-07T04:30:44.199Z,101544.09
2022-10-07T04:33:13.867Z,101547.56
2022-10-07T04:35:44.238Z,101540.94
2022-10-07T04:38:14.780Z,101544.91
2022-10-07T04:40:45.262Z,101545.09
2022-10-07T04:43:24.314Z,101544.75
2022-10-07T04:45:57.540Z,101540.75
2022-10-07T04:48:27.362Z,101540.06
2022-10-07T04:50:57.923Z,101531.50
2022-10-07T04:53:27.447Z,101535.78
2022-10-07T04:55:56.921Z,101537.63
2022-10-07T04:58:26.396Z,101534.31
2022-10-07T05:00:59.311Z,101535.13
2022-10-07T05:03:29.970Z,101525.38
2022-10-07T05:06:05.925Z,101526.88
2022-10-07T05:08:35.744Z,101522.75
2022-10-07T05:11:05.436Z,101522.44
2022-10-07T05:13:34.957Z,101523.41
2022-10-07T05:16:09.578Z,101513.69
2022-10-07T05:18:39.633Z,101525.88
2022-10-07T05:21:09.791Z,101520.59
2022-10-07T05:23:39.448Z,101526.88
2022-10-07T05:26:10.583Z,101524.88
2022-10-07T05:28:40.324Z,101522.25
2022-10-07T05:31:13.624Z,101523.25
2022-10-07T05:33:44.099Z,101523.03
2022-10-07T05:36:14.179Z,101513.13
2022-10-07T05:38:43.658Z,101509.84
2022-10-07T05:41:13.702Z,101517.63
2022-10-07T05:43:46.704Z,101517.78
2022-10-07T05:46:20.453Z,101511.19
2022-10-07T05:48:51.138Z,101514.97
2022-10-07T05:51:20.645Z,101511.16
2022-10-07T05:53:50.156Z,101507.50
2022-10-07T05:56:21.581Z,101504.38
2022-10-07T05:58:51.205Z,101504.38
2022-10-07T06:01:24.531Z,101500.09
2022-10-07T06:03:54.726Z,101499.28
2022-10-07T06:06:24.225Z,101493.06
2022-10-07T06:08:53.901Z,101493.25
2022-10-07T06:11:35.946Z,101491.94
2022-10-07T06:14:05.654Z,101487.16
2022-10-07T06:16:37.766Z,101496.22
2022-10-07T06:19:22.480Z,101496.75
2022-10-07T06:21:52.191Z,101490.97
2022-10-07T06:24:21.672Z,101491.13
2022-10-07T06:26:51.454Z,101488.81
2022-10-07T06:29:20.945Z,101493.44
2022-10-07T06:31:53.067Z,101500.34
2022-10-07T06:34:22.582Z,101486.63
2022-10-07T06:36:52.038Z,101490.59
2022-10-07T06:39:21.538Z,101483.81
2022-10-07T06:41:52.975Z,101480.66
2022-10-07T06:44:22.444Z,101492.19
2022-10-07T06:46:54.502Z,101486.41
2022-10-07T06:49:24.004Z,101488.63
2022-10-07T06:51:53.827Z,101490.34
2022-10-07T06:54:23.732Z,101482.22
2022-10-07T06:56:53.226Z,101484.63
2022-10-07T06:59:22.745Z,101491.38
2022-10-07T07:01:54.823Z,101496.47
2022-10-07T07:04:24.661Z,101490.31
2022-10-07T07:06:54.145Z,101489.22
2022-10-07T07:09:24.060Z,101488.03
2022-10-07T07:11:56.394Z,101483.38
2022-10-07T07:14:26.328Z,101484.84
2022-10-07T07:16:58.803Z,101483.41
2022-10-07T07:19:28.323Z,101476.09
2022-10-07T07:21:57.791Z,101477.72
2022-10-07T07:24:27.279Z,101474.38
2022-10-07T07:26:56.739Z,101473.50
2022-10-07T07:29:26.618Z,101470.75
2022-10-07T07:32:00.095Z,101460.50
2022-10-07T07:34:29.662Z,101472.13
2022-10-07T07:36:59.112Z,101476.41
2022-10-07T07:39:28.577Z,101469.13
2022-10-07T07:41:58.040Z,101472.56
2022-10-07T07:44:32.519Z,101458.69
2022-10-07T07:47:07.803Z,101462.06
2022-10-07T07:49:37.285Z,101461.59
2022-10-07T07:52:07.135Z,101466.75
2022-10-07T07:54:37.655Z,101458.78
2022-10-07T07:57:07.262Z,101461.22
2022-10-07T07:59:37.354Z,101452.75
2022-10-07T08:02:09.474Z,101444.88
2022-10-07T08:04:39.067Z,101444.81
2022-10-07T08:07:09.412Z,101449.50
2022-10-07T08:09:39.129Z,101443.16
2022-10-07T08:12:08.738Z,101439.84
2022-10-07T08:14:39.211Z,101441.06
2022-10-07T08:17:11.349Z,101443.06
2022-10-07T08:19:40.867Z,101451.41
2022-10-07T08:22:11.796Z,101447.34
2022-10-07T08:24:42.305Z,101442.31
2022-10-07T08:27:11.784Z,101440.81
2022-10-07T08:29:41.299Z,101438.44
2022-10-07T08:32:13.371Z,101439.06
2022-10-07T08:34:42.857Z,101431.28
2022-10-07T08:37:12.396Z,101439.06
2022-10-07T08:39:41.865Z,101429.78
2022-10-07T08:42:15.263Z,101437.41
2022-10-07T08:44:45.606Z,101437.81
2022-10-07T08:47:23.213Z,101423.56
2022-10-07T08:49:58.407Z,101436.31
2022-10-07T08:52:34.961Z,101427.94
2022-10-07T08:55:04.551Z,101415.81
2022-10-07T08:57:48.835Z,101419.72
2022-10-07T09:00:21.284Z,101422.38
2022-10-07T09:03:09.189Z,101409.47
2022-10-07T09:05:40.483Z,101409.44
2022-10-07T09:08:14.900Z,101406.72
2022-10-07T09:10:45.275Z,101406.34
2022-10-07T09:13:16.239Z,101402.59
2022-10-07T09:15:47.741Z,101392.69
2022-10-07T09:18:22.964Z,101385.19
2022-10-07T09:20:54.779Z,101391.47
2022-10-07T09:23:25.771Z,101385.84
2022-10-07T09:25:55.241Z,101388.94
2022-10-07T09:28:26.883Z,101381.88
2022-10-07T09:30:56.491Z,101376.59
2022-10-07T09:33:29.797Z,101370.22
2022-10-07T09:36:00.024Z,101364.25
2022-10-07T09:38:36.718Z,101361.78
2022-10-07T09:41:20.271Z,101355.78
2022-10-07T09:44:01.742Z,101352.06
2022-10-07T09:46:48.848Z,101362.09
2022-10-07T09:49:45.166Z,101346.91
2022-10-07T09:52:19.311Z,101342.47
2022-10-07T09:54:49.569Z,101352.66
2022-10-07T09:57:34.028Z,101356.00
2022-10-07T10:00:24.285Z,101354.28
2022-10-07T10:02:55.562Z,101341.63
2022-10-07T10:05:29.814Z,101341.03
2022-10-07T10:08:00.853Z,101331.44
2022-10-07T10:10:30.452Z,101333.66
2022-10-07T10:13:00.733Z,101334.06
2022-10-07T10:15:41.933Z,101330.75
2022-10-07T10:18:28.659Z,101334.31
2022-10-07T10:21:04.667Z,101328.47
2022-10-07T10:23:36.015Z,101325.09
2022-10-07T10:26:33.933Z,101316.44
2022-10-07T10:29:13.062Z,101305.16
2022-10-07T10:32:01.357Z,101302.00
2022-10-07T10:34:35.241Z,101300.16
2022-10-07T10:37:14.518Z,101291.03
2022-10-07T10:39:49.756Z,101291.13
2022-10-07T10:42:25.504Z,101290.50
2022-10-07T10:45:07.907Z,101283.25
2022-10-07T10:47:43.922Z,101274.47
2022-10-07T10:50:16.773Z,101272.84
2022-10-07T10:52:54.926Z,101275.44
2022-10-07T10:55:33.492Z,101269.38
2022-10-07T10:58:07.882Z,101255.91
2022-10-07T11:00:40.911Z,101259.13
2022-10-07T11:03:39.750Z,101255.06
2022-10-07T11:06:10.625Z,101248.31
2022-10-07T11:08:42.723Z,101242.19
2022-10-07T11:11:13.082Z,101244.66
2022-10-07T11:13:46.896Z,101232.72
2022-10-07T11:16:18.808Z,101229.50
2022-10-07T11:18:50.988Z,101225.47
2022-10-07T11:21:23.205Z,101213.16
2022-10-07T11:24:01.490Z,101215.72
2022-10-07T11:26:34.879Z,101214.91
2022-10-07T11:29:08.164Z,101212.63
2022-10-07T11:31:39.488Z,101197.38
2022-10-07T11:34:15.164Z,101202.00
2022-10-07T11:36:48.196Z,101196.53
2022-10-07T11:39:20.303Z,101187.84
2022-10-07T11:41:53.275Z,101174.78
2022-10-07T11:44:24.883Z,101176.09
2022-10-07T11:46:54.459Z,101180.66
2022-10-07T11:49:25.316Z,101168.75
2022-10-07T11:51:58.525Z,101163.47
2022-10-07T11:54:31.658Z,101151.81
2022-10-07T11:57:01.563Z,101152.03
2022-10-07T11:59:39.171Z,101155.31
2022-10-07T12:02:20.919Z,101139.97
2022-10-07T12:04:50.647Z,101137.63
2022-10-07T12:07:55.891Z,101126.72
2022-10-07T12:10:32.332Z,101121.34
2022-10-07T12:13:03.466Z,101115.56
2022-10-07T12:15:34.843Z,101107.94
2022-10-07T12:18:31.506Z,101108.31
2022-10-07T12:21:05.642Z,101098.53
2022-10-07T12:23:47.276Z,101099.94
2022-10-07T12:26:54.799Z,101088.44
2022-10-07T12:29:35.817Z,101088.16
2022-10-07T12:32:05.112Z,101086.25
2022-10-07T12:34:41.219Z,101078.59
2022-10-07T12:37:40.562Z,101074.03
2022-10-07T12:40:16.054Z,101075.25
2022-10-07T12:42:48.587Z,101072.22
2022-10-07T12:45:21.058Z,101060.63
2022-10-07T12:47:50.563Z,101068.00
2022-10-07T12:50:20.258Z,101054.41
2022-10-07T12:52:53.017Z,101040.69
2022-10-07T12:55:29.150Z,101049.41
2022-10-07T12:58:20.062Z,101038.50
2022-10-07T13:00:56.503Z,101034.59
2022-10-07T13:03:46.585Z,101027.81
2022-10-07T13:06:46.419Z,101031.84
2022-10-07T13:09:31.387Z,101028.94
2022-10-07T13:12:12.633Z,101022.31
2022-10-07T13:14:47.376Z,101018.97
2022-10-07T13:17:27.828Z,101014.47
2022-10-07T13:20:02.053Z,101012.97
2022-10-07T13:22:32.032Z,101000.19
2022-10-07T13:25:01.857Z,101001.97
2022-10-07T13:27:32.618Z,100999.75
2022-10-07T13:30:04.097Z,101001.63
2022-10-07T13:32:37.035Z,100994.63
2022-10-07T13:35:23.564Z,100989.78
2022-10-07T13:37:53.046Z,100978.25
2022-10-07T13:40:23.970Z,100988.16
2022-10-07T13:42:55.547Z,100978.91
2022-10-07T13:45:25.073Z,100973.78
2022-10-07T13:47:57.726Z,100961.91
2022-10-07T13:50:29.216Z,100958.31
2022-10-07T13:52:58.697Z,100956.06
2022-10-07T13:55:30.644Z,100955.72
2022-10-07T13:58:01.942Z,100951.78
2022-10-07T14:00:32.474Z,100939.53
2022-10-07T14:03:04.583Z,100936.38
2022-10-07T14:05:34.308Z,100938.31
2022-10-07T14:08:15.095Z,100927.69
2022-10-07T14:10:52.355Z,100931.53
2022-10-07T14:13:21.883Z,100920.19
2022-10-07T14:15:53.273Z,100928.41
2022-10-07T14:18:27.623Z,100922.88
2022-10-07T14:20:57.965Z,100923.91
2022-10-07T14:23:31.146Z,100908.69
2022-10-07T14:26:01.756Z,100902.50
2022-10-07T14:28:32.207Z,100906.16
2022-10-07T14:31:35.028Z,100894.03
2022-10-07T14:34:26.321Z,100897.50
2022-10-07T14:37:08.141Z,100879.88
2022-10-07T14:39:38.766Z,100881.13
2022-10-07T14:42:11.467Z,100879.28
2022-10-07T14:44:43.990Z,100875.19
2022-10-07T14:47:15.116Z,100877.94
2022-10-07T14:49:47.002Z,100872.72
2022-10-07T14:52:17.160Z,100873.06
2022-10-07T14:54:46.624Z,100870.06
2022-10-07T14:57:16.129Z,100870.63
2022-10-07T14:59:47.280Z,100865.47
2022-10-07T15:02:17.377Z,100862.06
2022-10-07T15:04:49.711Z,100862.84
2022-10-07T15:07:19.421Z,100855.25
2022-10-07T15:09:49.118Z,100855.50
2022-10-07T15:12:18.802Z,100849.72
2022-10-07T15:14:48.543Z,100849.34
2022-10-07T15:17:18.055Z,100849.25
2022-10-07T15:19:50.200Z,100845.31
2022-10-07T15:22:19.751Z,100838.34
2022-10-07T15:24:49.239Z,100847.94
2022-10-07T15:27:19.335Z,100843.44
2022-10-07T15:29:50.459Z,100846.94
2022-10-07T15:32:19.950Z,100842.66
2022-10-07T15:34:52.400Z,100842.28
2022-10-07T15:37:21.951Z,100844.59
2022-10-07T15:39:51.406Z,100842.06
2022-10-07T15:42:20.990Z,100839.97
2022-10-07T15:44:51.146Z,100844.09
2022-10-07T15:47:20.714Z,100835.00
2022-10-07T15:49:52.776Z,100829.75
2022-10-07T15:52:22.804Z,100824.91
2022-10-07T15:54:52.308Z,100832.47
2022-10-07T15:57:22.493Z,100833.78
2022-10-07T15:59:54.700Z,100836.47
2022-10-07T16:02:24.894Z,100829.59
2022-10-07T16:04:56.997Z,100833.59
2022-10-07T16:07:28.431Z,100816.75
2022-10-07T16:09:58.238Z,100819.13
2022-10-07T16:12:27.943Z,100824.59
2022-10-07T16:14:57.548Z,100817.44
2022-10-07T16:17:27.727Z,100817.34
2022-10-07T16:19:59.832Z,100814.47
2022-10-07T16:22:29.316Z,100816.38
2022-10-07T16:24:58.795Z,100816.06
2022-10-07T16:27:48.530Z,100814.53
2022-10-07T16:30:30.653Z,100820.97
2022-10-07T16:33:00.167Z,100820.13
2022-10-07T16:35:34.576Z,100816.53
2022-10-07T16:38:04.981Z,100817.28
2022-10-07T16:40:34.965Z,100815.00
2022-10-07T16:43:04.471Z,100808.19
2022-10-07T16:45:33.964Z,100807.28
2022-10-07T16:48:03.707Z,100818.41
2022-10-07T16:50:35.849Z,100819.53
2022-10-07T16:53:05.368Z,100817.00
2022-10-07T16:55:35.356Z,100813.69
2022-10-07T16:58:04.865Z,100816.97
2022-10-07T17:00:34.338Z,100812.81
2022-10-07T17:03:03.843Z,100813.22
2022-10-07T17:05:37.461Z,100815.19
2022-10-07T17:08:06.993Z,100823.16
2022-10-07T17:10:36.461Z,100822.22
2022-10-07T17:13:06.868Z,100818.63
2022-10-07T17:15:36.367Z,100817.06
2022-10-07T17:18:06.090Z,100825.09
2022-10-07T17:20:40.138Z,100825.97
2022-10-07T17:23:09.656Z,100825.00
2022-10-07T17:25:40.535Z,100810.91
2022-10-07T17:28:10.113Z,100821.16
2022-10-07T17:30:39.632Z,100810.34
2022-10-07T17:33:09.341Z,100814.44
2022-10-07T17:35:41.853Z,100821.28
2022-10-07T17:38:11.370Z,100818.66
2022-10-07T17:40:40.885Z,100814.00
2022-10-07T17:43:10.367Z,100812.75
2022-10-07T17:45:40.829Z,100818.53
2022-10-07T17:48:10.680Z,100824.31
2022-10-07T17:50:42.885Z,100823.53
2022-10-07T17:53:12.372Z,100817.94
2022-10-07T17:55:42.828Z,100821.06
2022-10-07T17:58:12.327Z,100822.13
2022-10-07T18:00:41.867Z,100827.38
2022-10-07T18:03:13.425Z,100822.47
2022-10-07T18:05:52.080Z,100825.03
2022-10-07T18:08:21.755Z,100824.00
2022-10-07T18:10:53.487Z,100816.09
2022-10-07T18:13:35.484Z,100815.75
2022-10-07T18:16:05.286Z,100815.97
2022-10-07T18:18:34.824Z,100813.28
2022-10-07T18:21:08.323Z,100814.91
2022-10-07T18:23:38.039Z,100812.91
2022-10-07T18:26:07.857Z,100804.41
2022-10-07T18:28:38.113Z,100809.97
2022-10-07T18:31:11.620Z,100806.81
2022-10-07T18:33:41.646Z,100805.91
2022-10-07T18:36:14.872Z,100808.81
2022-10-07T18:38:45.312Z,100807.19
2022-10-07T18:41:15.591Z,100803.31
2022-10-07T18:43:45.464Z,100806.22
2022-10-07T18:46:16.639Z,100808.66
2022-10-07T18:48:48.059Z,100814.16
2022-10-07T18:51:20.155Z,100805.91
2022-10-07T18:53:49.652Z,100808.56
2022-10-07T18:56:20.305Z,100799.97
2022-10-07T18:58:50.825Z,100795.22
2022-10-07T19:01:21.299Z,100799.72
2022-10-07T19:03:53.067Z,100796.72
2022-10-07T19:06:26.080Z,100801.69
2022-10-07T19:08:55.942Z,100797.97
2022-10-07T19:11:25.467Z,100792.16
2022-10-07T19:13:53.727Z,100790.78
2022-10-07T19:16:24.203Z,100785.88
2022-10-07T19:18:54.824Z,100792.34
2022-10-07T19:21:27.558Z,100791.06
2022-10-07T19:23:58.740Z,100793.63
2022-10-07T19:26:29.136Z,100790.22
2022-10-07T19:28:58.698Z,100783.34
2022-10-07T19:31:29.140Z,100784.16
2022-10-07T19:34:01.426Z,100786.25
2022-10-07T19:36:34.197Z,100785.66
2022-10-07T19:39:03.867Z,100787.38
2022-10-07T19:41:34.386Z,100788.88
2022-10-07T19:44:03.919Z,100784.22
2022-10-07T19:46:34.346Z,100787.19
2022-10-07T19:49:04.540Z,100789.50
2022-10-07T19:51:37.141Z,100788.91
2022-10-07T19:54:10.041Z,100786.25
2022-10-07T19:56:39.894Z,100790.41
2022-10-07T19:59:10.038Z,100790.25
2022-10-07T20:01:41.554Z,100787.44
2022-10-07T20:04:12.791Z,100781.53
2022-10-07T20:06:45.022Z,100779.28
2022-10-07T20:09:15.659Z,100785.09
2022-10-07T20:11:45.572Z,100785.38
2022-10-07T20:14:16.239Z,100779.69
2022-10-07T20:16:47.004Z,100779.69
2022-10-07T20:19:18.868Z,100775.59
2022-10-07T20:21:50.974Z,100778.72
2022-10-07T20:24:20.480Z,100776.25
2022-10-07T20:26:49.958Z,100777.25
2022-10-07T20:29:24.699Z,100774.44
2022-10-07T20:31:55.129Z,100772.81
2022-10-07T20:34:26.353Z,100784.19
2022-10-07T20:36:58.397Z,100774.97
2022-10-07T20:39:40.376Z,100771.50
2022-10-07T20:42:25.918Z,100767.66
2022-10-07T20:44:55.549Z,100768.28
2022-10-07T20:47:25.925Z,100764.00
2022-10-07T20:49:56.736Z,100778.38
2022-10-07T20:52:29.794Z,100772.22
2022-10-07T20:54:59.475Z,100770.00
2022-10-07T20:57:33.395Z,100765.31
2022-10-07T21:00:02.848Z,100760.81
2022-10-07T21:02:32.391Z,100763.06
2022-10-07T21:05:02.031Z,100768.59
2022-10-07T21:07:34.076Z,100765.19
2022-10-07T21:10:03.622Z,100767.72
2022-10-07T21:12:33.097Z,100763.38
2022-10-07T21:15:04.326Z,100763.38
2022-10-07T21:17:33.799Z,100760.13
2022-10-07T21:20:03.338Z,100763.63
2022-10-07T21:22:36.484Z,100749.91
2022-10-07T21:25:06.646Z,100754.88
2022-10-07T21:27:38.422Z,100753.66
2022-10-07T21:30:10.484Z,100750.41
2022-10-07T21:32:39.985Z,100749.22
2022-10-07T21:35:10.152Z,100748.41
2022-10-07T21:37:42.374Z,100749.47
2022-10-07T21:40:12.592Z,100750.09
2022-10-07T21:42:42.091Z,100760.59
2022-10-07T21:45:12.942Z,100752.81
2022-10-07T21:47:42.396Z,100754.88
2022-10-07T21:50:12.389Z,100756.97
2022-10-07T21:52:44.966Z,100753.69
2022-10-07T21:55:14.710Z,100756.19
2022-10-07T21:57:44.167Z,100752.94
2022-10-07T22:00:15.984Z,100746.41
2022-10-07T22:02:48.524Z,100745.81
2022-10-07T22:05:18.381Z,100742.13
2022-10-07T22:08:02.913Z,100744.19
2022-10-07T22:10:32.411Z,100737.38
2022-10-07T22:13:01.915Z,100745.41
2022-10-07T22:15:33.470Z,100749.09
2022-10-07T22:18:04.163Z,100752.19
2022-10-07T22:20:36.596Z,100747.28
2022-10-07T22:23:08.701Z,100752.63
2022-10-07T22:25:38.199Z,100744.63
2022-10-07T22:28:07.701Z,100749.75
2022-10-07T22:30:41.120Z,100751.19
2022-10-07T22:33:15.269Z,100746.53
2022-10-07T22:35:45.071Z,100741.41
2022-10-07T22:38:17.147Z,100742.09
2022-10-07T22:40:46.628Z,100742.28
2022-10-07T22:43:16.081Z,100738.78
2022-10-07T22:45:45.998Z,100740.22
2022-10-07T22:48:15.487Z,100743.75
2022-10-07T22:50:44.980Z,100738.41
2022-10-07T22:53:17.067Z,100733.31
2022-10-07T22:55:46.618Z,100739.47
2022-10-07T22:58:16.108Z,100735.97
2022-10-07T23:00:46.500Z,100730.88
2022-10-07T23:03:16.028Z,100736.63
2022-10-07T23:05:45.675Z,100730.31
2022-10-07T23:08:17.759Z,100728.28
2022-10-07T23:10:47.211Z,100731.78
2022-10-07T23:13:16.653Z,100726.25
2022-10-07T23:15:46.721Z,100735.00
2022-10-07T23:18:16.650Z,100731.94
2022-10-07T23:20:46.068Z,100727.22
2022-10-07T23:23:18.069Z,100728.84
2022-10-07T23:25:47.500Z,100735.19
2022-10-07T23:28:17.032Z,100729.00
2022-10-07T23:30:46.563Z,100733.47
2022-10-07T23:33:16.245Z,100731.22
2022-10-07T23:35:45.802Z,100725.28
2022-10-07T23:38:18.481Z,100718.13
2022-10-07T23:40:48.354Z,100724.84
2022-10-07T23:43:17.816Z,100713.38
2022-10-07T23:45:47.838Z,100715.41
2022-10-07T23:48:17.271Z,100704.34
2022-10-07T23:50:46.780Z,100710.66
2022-10-07T23:53:18.856Z,100712.28
2022-10-07T23:55:49.364Z,100709.41
2022-10-07T23:58:19.113Z,100711.25
